sensor_id;sensor_type;location;lat;lon;timestamp;P1;durP1;ratioP1;P2;durP2;ratioP2
22046;SDS011;11187;49.412;20.956;2023-05-01T00:02:53;17.95;;;15.27;;
22046;SDS011;11187;49.412;20.956;2023-05-01T00:05:26;16.95;;;15.35;;
22046;SDS011;11187;49.412;20.956;2023-05-01T00:08:20;16.48;;;14.88;;
22046;SDS011;11187;49.412;20.956;2023-05-01T00:11:14;18.73;;;14.50;;
22046;SDS011;11187;49.412;20.956;2023-05-01T00:13:47;14.93;;;13.50;;
22046;SDS011;11187;49.412;20.956;2023-05-01T00:16:34;15.52;;;14.02;;
22046;SDS011;11187;49.412;20.956;2023-05-01T00:19:08;15.18;;;13.77;;
22046;SDS011;11187;49.412;20.956;2023-05-01T00:22:05;16.45;;;14.88;;
22046;SDS011;11187;49.412;20.956;2023-05-01T00:24:38;17.05;;;15.30;;
22046;SDS011;11187;49.412;20.956;2023-05-01T00:27:28;15.70;;;14.27;;
22046;SDS011;11187;49.412;20.956;2023-05-01T00:30:01;15.70;;;14.30;;
22046;SDS011;11187;49.412;20.956;2023-05-01T00:32:49;14.45;;;13.05;;
22046;SDS011;11187;49.412;20.956;2023-05-01T00:35:22;14.70;;;13.25;;
22046;SDS011;11187;49.412;20.956;2023-05-01T00:38:09;15.27;;;12.90;;
22046;SDS011;11187;49.412;20.956;2023-05-01T00:40:42;14.07;;;12.48;;
22046;SDS011;11187;49.412;20.956;2023-05-01T00:43:37;17.27;;;15.63;;
22046;SDS011;11187;49.412;20.956;2023-05-01T00:46:31;15.65;;;14.35;;
22046;SDS011;11187;49.412;20.956;2023-05-01T00:49:06;14.20;;;12.80;;
22046;SDS011;11187;49.412;20.956;2023-05-01T00:52:00;13.57;;;12.35;;
22046;SDS011;11187;49.412;20.956;2023-05-01T00:54:33;15.60;;;13.23;;
22046;SDS011;11187;49.412;20.956;2023-05-01T00:57:27;15.43;;;13.20;;
22046;SDS011;11187;49.412;20.956;2023-05-01T01:00:00;14.57;;;13.13;;
22046;SDS011;11187;49.412;20.956;2023-05-01T01:02:54;13.68;;;12.25;;
22046;SDS011;11187;49.412;20.956;2023-05-01T01:05:50;14.55;;;13.30;;
22046;SDS011;11187;49.412;20.956;2023-05-01T01:08:54;17.98;;;14.35;;
22046;SDS011;11187;49.412;20.956;2023-05-01T01:11:37;15.43;;;13.93;;
22046;SDS011;11187;49.412;20.956;2023-05-01T01:14:43;15.27;;;13.82;;
22046;SDS011;11187;49.412;20.956;2023-05-01T01:21:16;15.93;;;14.43;;
22046;SDS011;11187;49.412;20.956;2023-05-01T01:24:11;15.77;;;13.60;;
22046;SDS011;11187;49.412;20.956;2023-05-01T01:27:17;15.20;;;13.90;;
22046;SDS011;11187;49.412;20.956;2023-05-01T01:36:25;17.10;;;15.50;;
22046;SDS011;11187;49.412;20.956;2023-05-01T01:39:45;17.08;;;15.32;;
22046;SDS011;11187;49.412;20.956;2023-05-01T01:42:33;16.08;;;14.65;;
22046;SDS011;11187;49.412;20.956;2023-05-01T01:45:38;17.88;;;15.07;;
22046;SDS011;11187;49.412;20.956;2023-05-01T01:48:14;16.00;;;14.45;;
22046;SDS011;11187;49.412;20.956;2023-05-01T01:51:05;15.40;;;13.90;;
22046;SDS011;11187;49.412;20.956;2023-05-01T01:53:45;15.07;;;13.65;;
22046;SDS011;11187;49.412;20.956;2023-05-01T01:56:36;15.38;;;13.98;;
22046;SDS011;11187;49.412;20.956;2023-05-01T01:59:12;16.65;;;15.15;;
22046;SDS011;11187;49.412;20.956;2023-05-01T02:02:01;15.05;;;13.75;;
22046;SDS011;11187;49.412;20.956;2023-05-01T02:04:36;16.58;;;15.05;;
22046;SDS011;11187;49.412;20.956;2023-05-01T02:07:25;15.18;;;13.63;;
22046;SDS011;11187;49.412;20.956;2023-05-01T02:10:00;16.75;;;15.05;;
22046;SDS011;11187;49.412;20.956;2023-05-01T02:12:50;16.35;;;14.68;;
22046;SDS011;11187;49.412;20.956;2023-05-01T02:15:25;16.20;;;14.80;;
22046;SDS011;11187;49.412;20.956;2023-05-01T02:18:13;14.27;;;12.88;;
22046;SDS011;11187;49.412;20.956;2023-05-01T02:20:47;15.30;;;13.90;;
22046;SDS011;11187;49.412;20.956;2023-05-01T02:23:35;15.75;;;14.27;;
22046;SDS011;11187;49.412;20.956;2023-05-01T02:26:12;15.35;;;13.82;;
22046;SDS011;11187;49.412;20.956;2023-05-01T02:29:01;15.55;;;14.10;;
22046;SDS011;11187;49.412;20.956;2023-05-01T02:31:34;16.45;;;15.15;;
22046;SDS011;11187;49.412;20.956;2023-05-01T02:34:21;16.02;;;14.55;;
22046;SDS011;11187;49.412;20.956;2023-05-01T02:36:54;15.07;;;13.52;;
22046;SDS011;11187;49.412;20.956;2023-05-01T02:39:41;15.13;;;13.80;;
22046;SDS011;11187;49.412;20.956;2023-05-01T02:42:14;14.88;;;13.57;;
22046;SDS011;11187;49.412;20.956;2023-05-01T02:45:17;14.55;;;13.35;;
22046;SDS011;11187;49.412;20.956;2023-05-01T02:48:12;15.65;;;14.15;;
22046;SDS011;11187;49.412;20.956;2023-05-01T02:50:50;15.57;;;14.00;;
22046;SDS011;11187;49.412;20.956;2023-05-01T02:53:38;14.77;;;13.52;;
22046;SDS011;11187;49.412;20.956;2023-05-01T02:56:12;15.38;;;14.05;;
22046;SDS011;11187;49.412;20.956;2023-05-01T02:58:59;17.15;;;14.05;;
22046;SDS011;11187;49.412;20.956;2023-05-01T03:01:32;16.88;;;15.13;;
22046;SDS011;11187;49.412;20.956;2023-05-01T03:04:19;17.67;;;15.88;;
22046;SDS011;11187;49.412;20.956;2023-05-01T03:06:52;17.85;;;15.70;;
22046;SDS011;11187;49.412;20.956;2023-05-01T03:09:39;17.50;;;15.68;;
22046;SDS011;11187;49.412;20.956;2023-05-01T03:12:12;16.73;;;15.32;;
22046;SDS011;11187;49.412;20.956;2023-05-01T03:14:59;18.00;;;16.20;;
22046;SDS011;11187;49.412;20.956;2023-05-01T03:17:32;18.58;;;16.85;;
22046;SDS011;11187;49.412;20.956;2023-05-01T03:20:19;15.63;;;14.32;;
22046;SDS011;11187;49.412;20.956;2023-05-01T03:22:53;16.88;;;15.10;;
22046;SDS011;11187;49.412;20.956;2023-05-01T03:25:40;14.38;;;13.07;;
22046;SDS011;11187;49.412;20.956;2023-05-01T03:28:13;16.85;;;15.35;;
22046;SDS011;11187;49.412;20.956;2023-05-01T03:31:09;15.68;;;14.30;;
22046;SDS011;11187;49.412;20.956;2023-05-01T03:34:03;15.07;;;13.60;;
22046;SDS011;11187;49.412;20.956;2023-05-01T03:36:57;15.60;;;14.35;;
22046;SDS011;11187;49.412;20.956;2023-05-01T03:39:51;17.02;;;15.57;;
22046;SDS011;11187;49.412;20.956;2023-05-01T03:42:24;17.27;;;15.68;;
22046;SDS011;11187;49.412;20.956;2023-05-01T03:45:11;17.02;;;15.48;;
22046;SDS011;11187;49.412;20.956;2023-05-01T03:47:44;17.02;;;15.32;;
22046;SDS011;11187;49.412;20.956;2023-05-01T03:50:31;16.70;;;15.20;;
22046;SDS011;11187;49.412;20.956;2023-05-01T03:53:04;18.05;;;15.68;;
22046;SDS011;11187;49.412;20.956;2023-05-01T03:55:52;18.70;;;16.75;;
22046;SDS011;11187;49.412;20.956;2023-05-01T03:58:46;15.68;;;14.13;;
22046;SDS011;11187;49.412;20.956;2023-05-01T04:01:40;16.95;;;15.55;;
22046;SDS011;11187;49.412;20.956;2023-05-01T04:04:13;18.02;;;16.27;;
22046;SDS011;11187;49.412;20.956;2023-05-01T04:07:00;17.80;;;16.00;;
22046;SDS011;11187;49.412;20.956;2023-05-01T04:09:33;17.33;;;15.18;;
22046;SDS011;11187;49.412;20.956;2023-05-01T04:12:20;17.40;;;15.63;;
22046;SDS011;11187;49.412;20.956;2023-05-01T04:14:53;15.70;;;14.23;;
22046;SDS011;11187;49.412;20.956;2023-05-01T04:17:40;15.18;;;13.20;;
22046;SDS011;11187;49.412;20.956;2023-05-01T04:20:15;16.23;;;14.75;;
22046;SDS011;11187;49.412;20.956;2023-05-01T04:23:09;15.63;;;14.38;;
22046;SDS011;11187;49.412;20.956;2023-05-01T04:25:42;18.08;;;16.58;;
22046;SDS011;11187;49.412;20.956;2023-05-01T04:28:37;17.60;;;15.75;;
22046;SDS011;11187;49.412;20.956;2023-05-01T04:31:31;16.50;;;14.75;;
22046;SDS011;11187;49.412;20.956;2023-05-01T04:34:04;15.95;;;14.55;;
22046;SDS011;11187;49.412;20.956;2023-05-01T04:36:51;17.95;;;15.43;;
22046;SDS011;11187;49.412;20.956;2023-05-01T04:39:24;16.85;;;15.35;;
22046;SDS011;11187;49.412;20.956;2023-05-01T04:42:11;15.88;;;14.27;;
22046;SDS011;11187;49.412;20.956;2023-05-01T04:44:44;15.95;;;14.55;;
22046;SDS011;11187;49.412;20.956;2023-05-01T04:47:31;14.57;;;13.25;;
22046;SDS011;11187;49.412;20.956;2023-05-01T04:50:04;14.95;;;13.68;;
22046;SDS011;11187;49.412;20.956;2023-05-01T04:52:59;14.55;;;13.45;;
22046;SDS011;11187;49.412;20.956;2023-05-01T04:55:53;13.75;;;12.55;;
22046;SDS011;11187;49.412;20.956;2023-05-01T04:58:26;14.98;;;13.57;;
22046;SDS011;11187;49.412;20.956;2023-05-01T05:01:13;16.25;;;14.63;;
22046;SDS011;11187;49.412;20.956;2023-05-01T05:03:46;15.50;;;14.25;;
22046;SDS011;11187;49.412;20.956;2023-05-01T05:06:33;15.63;;;14.32;;
22046;SDS011;11187;49.412;20.956;2023-05-01T05:09:06;15.27;;;13.75;;
22046;SDS011;11187;49.412;20.956;2023-05-01T05:11:53;15.13;;;13.63;;
22046;SDS011;11187;49.412;20.956;2023-05-01T05:14:26;16.15;;;13.57;;
22046;SDS011;11187;49.412;20.956;2023-05-01T05:17:13;16.50;;;14.88;;
22046;SDS011;11187;49.412;20.956;2023-05-01T05:19:46;15.07;;;13.88;;
22046;SDS011;11187;49.412;20.956;2023-05-01T05:22:36;13.68;;;12.57;;
22046;SDS011;11187;49.412;20.956;2023-05-01T05:25:09;15.85;;;14.40;;
22046;SDS011;11187;49.412;20.956;2023-05-01T05:28:03;15.95;;;14.27;;
22046;SDS011;11187;49.412;20.956;2023-05-01T05:30:57;17.27;;;14.07;;
22046;SDS011;11187;49.412;20.956;2023-05-01T05:33:51;15.27;;;14.07;;
22046;SDS011;11187;49.412;20.956;2023-05-01T05:36:24;15.65;;;14.02;;
22046;SDS011;11187;49.412;20.956;2023-05-01T05:39:11;14.73;;;13.50;;
22046;SDS011;11187;49.412;20.956;2023-05-01T05:41:45;14.93;;;13.57;;
22046;SDS011;11187;49.412;20.956;2023-05-01T05:44:32;13.77;;;12.60;;
22046;SDS011;11187;49.412;20.956;2023-05-01T05:47:07;15.05;;;13.77;;
22046;SDS011;11187;49.412;20.956;2023-05-01T05:49:54;16.45;;;14.82;;
22046;SDS011;11187;49.412;20.956;2023-05-01T05:52:27;15.57;;;14.23;;
22046;SDS011;11187;49.412;20.956;2023-05-01T05:55:14;15.35;;;14.05;;
22046;SDS011;11187;49.412;20.956;2023-05-01T05:57:47;15.65;;;14.05;;
22046;SDS011;11187;49.412;20.956;2023-05-01T06:00:41;15.80;;;14.10;;
22046;SDS011;11187;49.412;20.956;2023-05-01T06:03:14;14.00;;;11.48;;
22046;SDS011;11187;49.412;20.956;2023-05-01T06:06:02;16.13;;;14.85;;
22046;SDS011;11187;49.412;20.956;2023-05-01T06:08:35;16.98;;;15.68;;
22046;SDS011;11187;49.412;20.956;2023-05-01T06:11:31;17.25;;;15.75;;
22046;SDS011;11187;49.412;20.956;2023-05-01T06:14:25;15.52;;;14.32;;
22046;SDS011;11187;49.412;20.956;2023-05-01T06:16:58;15.88;;;14.32;;
22046;SDS011;11187;49.412;20.956;2023-05-01T06:19:45;17.08;;;15.52;;
22046;SDS011;11187;49.412;20.956;2023-05-01T06:22:19;14.90;;;13.38;;
22046;SDS011;11187;49.412;20.956;2023-05-01T06:25:13;15.13;;;13.75;;
22046;SDS011;11187;49.412;20.956;2023-05-01T06:27:46;15.55;;;14.23;;
22046;SDS011;11187;49.412;20.956;2023-05-01T06:30:40;15.82;;;14.57;;
22046;SDS011;11187;49.412;20.956;2023-05-01T06:33:34;15.57;;;14.30;;
22046;SDS011;11187;49.412;20.956;2023-05-01T06:36:07;16.08;;;14.52;;
22046;SDS011;11187;49.412;20.956;2023-05-01T06:39:01;16.17;;;14.75;;
22046;SDS011;11187;49.412;20.956;2023-05-01T06:41:34;14.75;;;13.65;;
22046;SDS011;11187;49.412;20.956;2023-05-01T06:44:28;15.23;;;13.68;;
22046;SDS011;11187;49.412;20.956;2023-05-01T06:47:22;14.18;;;12.98;;
22046;SDS011;11187;49.412;20.956;2023-05-01T06:49:58;14.52;;;13.23;;
22046;SDS011;11187;49.412;20.956;2023-05-01T06:52:53;16.30;;;14.98;;
22046;SDS011;11187;49.412;20.956;2023-05-01T06:55:48;15.05;;;13.70;;
22046;SDS011;11187;49.412;20.956;2023-05-01T06:58:21;14.73;;;13.38;;
22046;SDS011;11187;49.412;20.956;2023-05-01T07:01:15;14.95;;;13.95;;
22046;SDS011;11187;49.412;20.956;2023-05-01T07:03:48;14.48;;;13.35;;
22046;SDS011;11187;49.412;20.956;2023-05-01T07:06:42;15.57;;;14.15;;
22046;SDS011;11187;49.412;20.956;2023-05-01T07:09:15;15.35;;;14.02;;
22046;SDS011;11187;49.412;20.956;2023-05-01T07:12:02;16.15;;;14.60;;
22046;SDS011;11187;49.412;20.956;2023-05-01T07:14:35;13.98;;;12.93;;
22046;SDS011;11187;49.412;20.956;2023-05-01T07:17:22;14.15;;;12.90;;
22046;SDS011;11187;49.412;20.956;2023-05-01T07:19:55;13.65;;;12.65;;
22046;SDS011;11187;49.412;20.956;2023-05-01T07:22:50;13.20;;;12.20;;
22046;SDS011;11187;49.412;20.956;2023-05-01T07:25:23;14.57;;;13.48;;
22046;SDS011;11187;49.412;20.956;2023-05-01T07:28:10;13.82;;;12.45;;
22046;SDS011;11187;49.412;20.956;2023-05-01T07:30:43;13.75;;;12.68;;
22046;SDS011;11187;49.412;20.956;2023-05-01T07:33:30;14.05;;;12.95;;
22046;SDS011;11187;49.412;20.956;2023-05-01T07:36:03;14.73;;;13.13;;
22046;SDS011;11187;49.412;20.956;2023-05-01T07:38:57;13.90;;;12.80;;
22046;SDS011;11187;49.412;20.956;2023-05-01T07:41:52;13.23;;;12.18;;
22046;SDS011;11187;49.412;20.956;2023-05-01T07:44:46;16.88;;;15.20;;
22046;SDS011;11187;49.412;20.956;2023-05-01T07:47:42;15.43;;;14.25;;
22046;SDS011;11187;49.412;20.956;2023-05-01T07:50:15;14.73;;;13.70;;
22046;SDS011;11187;49.412;20.956;2023-05-01T07:53:09;13.30;;;12.10;;
22046;SDS011;11187;49.412;20.956;2023-05-01T07:56:03;11.25;;;10.32;;
22046;SDS011;11187;49.412;20.956;2023-05-01T07:59:01;12.80;;;11.88;;
22046;SDS011;11187;49.412;20.956;2023-05-01T08:01:55;13.68;;;12.57;;
22046;SDS011;11187;49.412;20.956;2023-05-01T08:04:28;13.40;;;12.40;;
22046;SDS011;11187;49.412;20.956;2023-05-01T08:07:15;13.15;;;11.85;;
22046;SDS011;11187;49.412;20.956;2023-05-01T08:09:48;13.70;;;12.48;;
22046;SDS011;11187;49.412;20.956;2023-05-01T08:12:42;12.57;;;11.68;;
22046;SDS011;11187;49.412;20.956;2023-05-01T08:15:15;12.30;;;11.40;;
22046;SDS011;11187;49.412;20.956;2023-05-01T08:18:02;13.80;;;12.70;;
22046;SDS011;11187;49.412;20.956;2023-05-01T08:20:35;15.80;;;14.52;;
22046;SDS011;11187;49.412;20.956;2023-05-01T08:23:22;15.02;;;13.52;;
22046;SDS011;11187;49.412;20.956;2023-05-01T08:25:56;14.57;;;13.43;;
22046;SDS011;11187;49.412;20.956;2023-05-01T08:28:50;11.63;;;10.73;;
22046;SDS011;11187;49.412;20.956;2023-05-01T08:31:44;15.18;;;14.07;;
22046;SDS011;11187;49.412;20.956;2023-05-01T08:34:17;15.18;;;13.98;;
22046;SDS011;11187;49.412;20.956;2023-05-01T08:37:04;14.70;;;13.60;;
22046;SDS011;11187;49.412;20.956;2023-05-01T08:39:37;15.65;;;14.57;;
22046;SDS011;11187;49.412;20.956;2023-05-01T08:42:31;15.85;;;14.57;;
22046;SDS011;11187;49.412;20.956;2023-05-01T08:45:07;15.38;;;14.15;;
22046;SDS011;11187;49.412;20.956;2023-05-01T08:48:05;14.60;;;13.35;;
22046;SDS011;11187;49.412;20.956;2023-05-01T08:50:59;14.43;;;13.43;;
22046;SDS011;11187;49.412;20.956;2023-05-01T08:53:55;15.60;;;14.27;;
22046;SDS011;11187;49.412;20.956;2023-05-01T08:56:54;14.40;;;13.30;;
22046;SDS011;11187;49.412;20.956;2023-05-01T08:59:53;14.82;;;13.35;;
22046;SDS011;11187;49.412;20.956;2023-05-01T09:02:28;13.70;;;12.50;;
22046;SDS011;11187;49.412;20.956;2023-05-01T09:05:27;13.82;;;12.57;;
22046;SDS011;11187;49.412;20.956;2023-05-01T09:08:00;15.05;;;14.10;;
22046;SDS011;11187;49.412;20.956;2023-05-01T09:10:54;15.20;;;14.20;;
22046;SDS011;11187;49.412;20.956;2023-05-01T09:13:30;14.23;;;13.02;;
22046;SDS011;11187;49.412;20.956;2023-05-01T09:16:18;13.85;;;12.75;;
22046;SDS011;11187;49.412;20.956;2023-05-01T09:18:52;12.45;;;11.45;;
22046;SDS011;11187;49.412;20.956;2023-05-01T09:21:48;13.35;;;12.35;;
22046;SDS011;11187;49.412;20.956;2023-05-01T09:24:42;14.10;;;13.00;;
22046;SDS011;11187;49.412;20.956;2023-05-01T09:27:15;11.93;;;11.13;;
22046;SDS011;11187;49.412;20.956;2023-05-01T09:30:09;13.68;;;12.63;;
22046;SDS011;11187;49.412;20.956;2023-05-01T09:33:22;12.95;;;12.05;;
22046;SDS011;11187;49.412;20.956;2023-05-01T09:35:55;13.60;;;12.55;;
22046;SDS011;11187;49.412;20.956;2023-05-01T09:38:42;13.90;;;12.50;;
22046;SDS011;11187;49.412;20.956;2023-05-01T09:41:15;12.95;;;11.57;;
22046;SDS011;11187;49.412;20.956;2023-05-01T09:44:02;14.38;;;13.15;;
22046;SDS011;11187;49.412;20.956;2023-05-01T09:46:39;13.98;;;12.68;;
22046;SDS011;11187;49.412;20.956;2023-05-01T09:49:44;14.73;;;13.63;;
22046;SDS011;11187;49.412;20.956;2023-05-01T09:52:28;13.30;;;12.18;;
22046;SDS011;11187;49.412;20.956;2023-05-01T09:55:17;15.60;;;14.50;;
22046;SDS011;11187;49.412;20.956;2023-05-01T09:58:25;13.55;;;12.55;;
22046;SDS011;11187;49.412;20.956;2023-05-01T10:01:01;13.63;;;12.77;;
22046;SDS011;11187;49.412;20.956;2023-05-01T10:03:52;14.23;;;13.20;;
22046;SDS011;11187;49.412;20.956;2023-05-01T10:06:27;13.57;;;12.68;;
22046;SDS011;11187;49.412;20.956;2023-05-01T10:09:25;14.25;;;13.18;;
22046;SDS011;11187;49.412;20.956;2023-05-01T10:11:59;14.45;;;13.32;;
22046;SDS011;11187;49.412;20.956;2023-05-01T10:14:52;13.85;;;12.75;;
22046;SDS011;11187;49.412;20.956;2023-05-01T10:17:37;14.00;;;12.77;;
22046;SDS011;11187;49.412;20.956;2023-05-01T10:20:32;13.43;;;12.32;;
22046;SDS011;11187;49.412;20.956;2023-05-01T10:23:05;13.55;;;12.55;;
22046;SDS011;11187;49.412;20.956;2023-05-01T10:26:00;13.82;;;12.65;;
22046;SDS011;11187;49.412;20.956;2023-05-01T10:28:55;14.00;;;12.82;;
22046;SDS011;11187;49.412;20.956;2023-05-01T10:31:31;12.80;;;11.50;;
22046;SDS011;11187;49.412;20.956;2023-05-01T10:34:25;13.95;;;12.85;;
22046;SDS011;11187;49.412;20.956;2023-05-01T10:37:33;13.02;;;12.23;;
22046;SDS011;11187;49.412;20.956;2023-05-01T10:43:26;14.27;;;13.32;;
22046;SDS011;11187;49.412;20.956;2023-05-01T10:49:01;14.60;;;13.45;;
22046;SDS011;11187;49.412;20.956;2023-05-01T10:51:37;14.55;;;13.30;;
22046;SDS011;11187;49.412;20.956;2023-05-01T10:54:49;14.60;;;13.38;;
22046;SDS011;11187;49.412;20.956;2023-05-01T10:57:43;13.70;;;12.70;;
22046;SDS011;11187;49.412;20.956;2023-05-01T11:00:37;13.50;;;12.35;;
22046;SDS011;11187;49.412;20.956;2023-05-01T11:06:04;13.88;;;12.90;;
22046;SDS011;11187;49.412;20.956;2023-05-01T11:08:51;13.93;;;13.02;;
22046;SDS011;11187;49.412;20.956;2023-05-01T11:14:18;14.45;;;13.35;;
22046;SDS011;11187;49.412;20.956;2023-05-01T11:17:13;13.50;;;12.60;;
22046;SDS011;11187;49.412;20.956;2023-05-01T11:20:12;13.18;;;12.00;;
22046;SDS011;11187;49.412;20.956;2023-05-01T11:23:26;12.57;;;11.57;;
22046;SDS011;11187;49.412;20.956;2023-05-01T11:26:21;14.50;;;13.50;;
22046;SDS011;11187;49.412;20.956;2023-05-01T11:29:15;13.00;;;12.10;;
22046;SDS011;11187;49.412;20.956;2023-05-01T11:32:13;13.07;;;12.23;;
22046;SDS011;11187;49.412;20.956;2023-05-01T11:34:50;12.90;;;12.00;;
22046;SDS011;11187;49.412;20.956;2023-05-01T11:37:38;12.52;;;11.73;;
22046;SDS011;11187;49.412;20.956;2023-05-01T11:43:10;12.68;;;11.77;;
22046;SDS011;11187;49.412;20.956;2023-05-01T11:45:44;12.98;;;12.07;;
22046;SDS011;11187;49.412;20.956;2023-05-01T11:48:42;11.70;;;10.68;;
22046;SDS011;11187;49.412;20.956;2023-05-01T11:51:20;12.80;;;11.85;;
22046;SDS011;11187;49.412;20.956;2023-05-01T11:54:09;12.73;;;11.82;;
22046;SDS011;11187;49.412;20.956;2023-05-01T11:57:01;11.55;;;10.75;;
22046;SDS011;11187;49.412;20.956;2023-05-01T11:59:47;11.82;;;10.82;;
22046;SDS011;11187;49.412;20.956;2023-05-01T12:02:20;12.48;;;11.57;;
22046;SDS011;11187;49.412;20.956;2023-05-01T12:05:14;12.50;;;11.70;;
22046;SDS011;11187;49.412;20.956;2023-05-01T12:07:48;12.20;;;11.20;;
22046;SDS011;11187;49.412;20.956;2023-05-01T12:10:42;12.73;;;11.82;;
22046;SDS011;11187;49.412;20.956;2023-05-01T12:13:16;13.20;;;12.30;;
22046;SDS011;11187;49.412;20.956;2023-05-01T12:16:12;12.70;;;11.80;;
22046;SDS011;11187;49.412;20.956;2023-05-01T12:18:45;11.95;;;10.95;;
22046;SDS011;11187;49.412;20.956;2023-05-01T12:21:39;11.70;;;10.90;;
22046;SDS011;11187;49.412;20.956;2023-05-01T12:24:33;13.48;;;12.50;;
22046;SDS011;11187;49.412;20.956;2023-05-01T12:27:06;12.20;;;11.40;;
22046;SDS011;11187;49.412;20.956;2023-05-01T12:29:53;12.88;;;12.07;;
22046;SDS011;11187;49.412;20.956;2023-05-01T12:32:30;11.70;;;10.88;;
22046;SDS011;11187;49.412;20.956;2023-05-01T12:35:17;13.27;;;12.38;;
22046;SDS011;11187;49.412;20.956;2023-05-01T12:37:50;12.02;;;11.23;;
22046;SDS011;11187;49.412;20.956;2023-05-01T12:40:38;11.85;;;10.93;;
22046;SDS011;11187;49.412;20.956;2023-05-01T12:43:12;13.00;;;12.10;;
22046;SDS011;11187;49.412;20.956;2023-05-01T12:45:59;12.20;;;11.13;;
22046;SDS011;11187;49.412;20.956;2023-05-01T12:48:36;12.50;;;11.60;;
22046;SDS011;11187;49.412;20.956;2023-05-01T12:51:24;13.38;;;12.07;;
22046;SDS011;11187;49.412;20.956;2023-05-01T12:53:59;13.05;;;12.18;;
22046;SDS011;11187;49.412;20.956;2023-05-01T12:56:46;12.68;;;11.60;;
22046;SDS011;11187;49.412;20.956;2023-05-01T12:59:41;11.48;;;10.68;;
22046;SDS011;11187;49.412;20.956;2023-05-01T13:02:16;12.38;;;11.48;;
22046;SDS011;11187;49.412;20.956;2023-05-01T13:05:10;13.52;;;12.63;;
22046;SDS011;11187;49.412;20.956;2023-05-01T13:08:04;13.50;;;12.40;;
22046;SDS011;11187;49.412;20.956;2023-05-01T13:10:37;12.13;;;11.32;;
22046;SDS011;11187;49.412;20.956;2023-05-01T13:13:25;12.50;;;11.50;;
22046;SDS011;11187;49.412;20.956;2023-05-01T13:16:09;12.35;;;11.45;;
22046;SDS011;11187;49.412;20.956;2023-05-01T13:19:05;11.88;;;10.88;;
22046;SDS011;11187;49.412;20.956;2023-05-01T13:21:59;12.27;;;11.38;;
22046;SDS011;11187;49.412;20.956;2023-05-01T13:24:39;13.55;;;12.40;;
22046;SDS011;11187;49.412;20.956;2023-05-01T13:27:28;12.65;;;11.75;;
22046;SDS011;11187;49.412;20.956;2023-05-01T13:30:01;12.10;;;11.20;;
22046;SDS011;11187;49.412;20.956;2023-05-01T13:32:49;13.85;;;12.65;;
22046;SDS011;11187;49.412;20.956;2023-05-01T13:35:23;12.20;;;11.30;;
22046;SDS011;11187;49.412;20.956;2023-05-01T13:38:18;12.35;;;11.45;;
22046;SDS011;11187;49.412;20.956;2023-05-01T13:40:54;12.40;;;11.50;;
22046;SDS011;11187;49.412;20.956;2023-05-01T13:43:49;12.18;;;11.27;;
22046;SDS011;11187;49.412;20.956;2023-05-01T13:46:43;13.25;;;12.20;;
22046;SDS011;11187;49.412;20.956;2023-05-01T13:49:19;13.40;;;12.60;;
22046;SDS011;11187;49.412;20.956;2023-05-01T13:52:09;12.15;;;11.15;;
22046;SDS011;11187;49.412;20.956;2023-05-01T13:54:48;12.50;;;11.43;;
22046;SDS011;11187;49.412;20.956;2023-05-01T13:57:45;11.10;;;10.40;;
22046;SDS011;11187;49.412;20.956;2023-05-01T14:00:39;12.90;;;11.90;;
22046;SDS011;11187;49.412;20.956;2023-05-01T14:03:12;12.85;;;11.85;;
22046;SDS011;11187;49.412;20.956;2023-05-01T14:06:01;12.05;;;11.25;;
22046;SDS011;11187;49.412;20.956;2023-05-01T14:08:35;11.27;;;10.38;;
22046;SDS011;11187;49.412;20.956;2023-05-01T14:11:21;12.57;;;11.52;;
22046;SDS011;11187;49.412;20.956;2023-05-01T14:13:54;11.60;;;10.70;;
22046;SDS011;11187;49.412;20.956;2023-05-01T14:16:45;12.68;;;11.70;;
22046;SDS011;11187;49.412;20.956;2023-05-01T14:19:20;12.77;;;11.68;;
22046;SDS011;11187;49.412;20.956;2023-05-01T14:22:07;11.10;;;10.20;;
22046;SDS011;11187;49.412;20.956;2023-05-01T14:24:40;12.68;;;11.77;;
22046;SDS011;11187;49.412;20.956;2023-05-01T14:27:27;13.82;;;12.82;;
22046;SDS011;11187;49.412;20.956;2023-05-01T14:30:02;12.75;;;11.73;;
22046;SDS011;11187;49.412;20.956;2023-05-01T14:32:51;13.35;;;12.45;;
22046;SDS011;11187;49.412;20.956;2023-05-01T14:35:25;11.50;;;10.77;;
22046;SDS011;11187;49.412;20.956;2023-05-01T14:38:18;12.30;;;11.30;;
22046;SDS011;11187;49.412;20.956;2023-05-01T14:41:13;12.43;;;11.40;;
22046;SDS011;11187;49.412;20.956;2023-05-01T14:43:49;12.57;;;11.48;;
22046;SDS011;11187;49.412;20.956;2023-05-01T14:46:44;11.68;;;10.57;;
22046;SDS011;11187;49.412;20.956;2023-05-01T14:49:21;11.75;;;10.95;;
22046;SDS011;11187;49.412;20.956;2023-05-01T14:52:09;11.88;;;10.95;;
22046;SDS011;11187;49.412;20.956;2023-05-01T14:54:44;12.38;;;11.45;;
22046;SDS011;11187;49.412;20.956;2023-05-01T14:57:31;12.40;;;11.32;;
22046;SDS011;11187;49.412;20.956;2023-05-01T15:00:25;11.82;;;10.75;;
22046;SDS011;11187;49.412;20.956;2023-05-01T15:03:19;12.10;;;11.25;;
22046;SDS011;11187;49.412;20.956;2023-05-01T15:06:13;11.80;;;10.90;;
22046;SDS011;11187;49.412;20.956;2023-05-01T15:08:47;12.07;;;11.27;;
22046;SDS011;11187;49.412;20.956;2023-05-01T15:11:33;11.65;;;10.95;;
22046;SDS011;11187;49.412;20.956;2023-05-01T15:14:06;11.93;;;11.00;;
22046;SDS011;11187;49.412;20.956;2023-05-01T15:16:53;11.82;;;10.93;;
22046;SDS011;11187;49.412;20.956;2023-05-01T15:19:26;12.20;;;11.40;;
22046;SDS011;11187;49.412;20.956;2023-05-01T15:22:20;13.07;;;12.18;;
22046;SDS011;11187;49.412;20.956;2023-05-01T15:24:53;12.18;;;11.18;;
22046;SDS011;11187;49.412;20.956;2023-05-01T15:27:50;12.05;;;11.15;;
22046;SDS011;11187;49.412;20.956;2023-05-01T15:30:23;12.40;;;11.40;;
22046;SDS011;11187;49.412;20.956;2023-05-01T15:33:11;10.75;;;9.75;;
22046;SDS011;11187;49.412;20.956;2023-05-01T15:35:45;12.68;;;11.80;;
22046;SDS011;11187;49.412;20.956;2023-05-01T15:38:32;10.90;;;9.95;;
22046;SDS011;11187;49.412;20.956;2023-05-01T15:41:06;11.90;;;11.05;;
22046;SDS011;11187;49.412;20.956;2023-05-01T15:43:59;11.52;;;10.55;;
22046;SDS011;11187;49.412;20.956;2023-05-01T15:46:53;11.90;;;11.00;;
22046;SDS011;11187;49.412;20.956;2023-05-01T15:49:27;11.10;;;10.32;;
22046;SDS011;11187;49.412;20.956;2023-05-01T15:52:20;12.38;;;11.48;;
22046;SDS011;11187;49.412;20.956;2023-05-01T15:55:14;12.35;;;11.32;;
22046;SDS011;11187;49.412;20.956;2023-05-01T15:58:08;12.23;;;11.30;;
22046;SDS011;11187;49.412;20.956;2023-05-01T16:01:02;11.23;;;10.30;;
22046;SDS011;11187;49.412;20.956;2023-05-01T16:03:38;12.20;;;11.40;;
22046;SDS011;11187;49.412;20.956;2023-05-01T16:06:30;12.80;;;11.90;;
22046;SDS011;11187;49.412;20.956;2023-05-01T16:09:04;12.05;;;11.25;;
22046;SDS011;11187;49.412;20.956;2023-05-01T16:11:51;12.88;;;11.77;;
22046;SDS011;11187;49.412;20.956;2023-05-01T16:14:25;10.50;;;9.80;;
22046;SDS011;11187;49.412;20.956;2023-05-01T16:17:11;12.48;;;11.48;;